Time;durP1;ratioP1;P1;durP2;ratioP2;P2;SDS_P1;SDS_P2;PMS_P1;PMS_P2;Temp;Humidity;BMP_temperature;BMP_pressure;BME280_temperature;BME280_humidity;BME280_pressure;Samples;Min_cycle;Max_cycle;Signal;HPM_P1;HPM_P2
2021/08/19 00:02:21;;;;;;;2.25;1.58;;;;;;;;;;5074850;28;20036;-64
2021/08/19 00:04:47;;;;;;;3.70;1.67;;;;;;;;;;5074883;28;20448;-64
2021/08/19 00:07:13;;;;;;;5.53;1.55;;;;;;;;;;5074964;28;20035;-64
2021/08/19 00:09:39;;;;;;;9.00;1.23;;;;;;;;;;5093815;28;20021;-65
2021/08/19 00:12:08;;;;;;;1.33;1.23;;;;;;;;;;5095041;28;20027;-65
2021/08/19 00:14:34;;;;;;;7.10;1.30;;;;;;;;;;5094737;28;20467;-65
2021/08/19 00:17:01;;;;;;;4.43;1.40;;;;;;;;;;5094908;28;20392;-65
2021/08/19 00:19:27;;;;;;;5.30;1.42;;;;;;;;;;5095127;28;20380;-65
2021/08/19 00:21:53;;;;;;;8.82;1.60;;;;;;;;;;5095255;28;20058;-67
2021/08/19 00:24:19;;;;;;;7.15;1.42;;;;;;;;;;5095088;28;20028;-65
2021/08/19 00:26:45;;;;;;;7.38;1.35;;;;;;;;;;5094795;28;20028;-66
2021/08/19 00:29:11;;;;;;;8.63;1.40;;;;;;;;;;5094725;28;20072;-66
2021/08/19 00:31:37;;;;;;;5.78;1.33;;;;;;;;;;5091586;28;20055;-65
2021/08/19 00:34:03;;;;;;;5.50;1.40;;;;;;;;;;5074582;28;20092;-65
2021/08/19 00:36:29;;;;;;;8.35;1.75;;;;;;;;;;5074296;28;20120;-65
2021/08/19 00:38:55;;;;;;;14.95;2.08;;;;;;;;;;5074531;28;20017;-65
2021/08/19 00:41:21;;;;;;;7.25;1.88;;;;;;;;;;5074485;28;20028;-67
2021/08/19 00:43:49;;;;;;;3.22;1.83;;;;;;;;;;5074258;28;20027;-66
2021/08/19 00:46:32;;;;;;;4.45;1.85;;;;;;;;;;5074275;28;20021;-66
2021/08/19 00:48:58;;;;;;;;;;;;;;;;;;5074675;28;20021;-65
2021/08/19 00:51:24;;;;;;;5.38;2.20;;;;;;;;;;5074185;28;19912;-66
2021/08/19 00:53:50;;;;;;;3.20;1.85;;;;;;;;;;5073753;28;20025;-66
2021/08/19 00:56:16;;;;;;;6.35;2.10;;;;;;;;;;5073223;28;20431;-65
2021/08/19 00:58:43;;;;;;;7.32;1.88;;;;;;;;;;5073756;28;20458;-66
2021/08/19 01:01:10;;;;;;;10.27;1.52;;;;;;;;;;5073958;28;20029;-65
2021/08/19 01:03:36;;;;;;;9.13;1.70;;;;;;;;;;5073891;28;20086;-65
2021/08/19 01:06:02;;;;;;;3.50;1.90;;;;;;;;;;5073563;28;20024;-66
2021/08/19 01:08:28;;;;;;;8.65;1.95;;;;;;;;;;5080572;28;20028;-65
2021/08/19 01:10:54;;;;;;;5.72;1.80;;;;;;;;;;5055863;28;20104;-66
2021/08/19 01:13:20;;;;;;;4.88;1.80;;;;;;;;;;5073680;28;20031;-66
2021/08/19 01:15:50;;;;;;;4.63;2.15;;;;;;;;;;5057856;28;20049;-63
2021/08/19 01:18:19;;;;;;;5.78;1.52;;;;;;;;;;5054093;28;20029;-65
2021/08/19 01:20:45;;;;;;;6.25;1.65;;;;;;;;;;5053661;28;20029;-64
2021/08/19 01:23:11;;;;;;;6.65;1.67;;;;;;;;;;5053589;28;20028;-65
2021/08/19 01:25:37;;;;;;;10.70;1.90;;;;;;;;;;5053718;28;20033;-67
2021/08/19 01:28:03;;;;;;;9.23;1.73;;;;;;;;;;5053410;28;20401;-65
2021/08/19 01:30:29;;;;;;;5.05;1.70;;;;;;;;;;5053217;28;20070;-66
2021/08/19 01:32:55;;;;;;;7.50;1.70;;;;;;;;;;5066650;28;20020;-67
2021/08/19 01:35:22;;;;;;;8.07;1.80;;;;;;;;;;5073113;28;20444;-67
2021/08/19 01:37:48;;;;;;;15.73;1.92;;;;;;;;;;5073308;28;20027;-67
2021/08/19 01:40:14;;;;;;;3.25;1.70;;;;;;;;;;5073286;28;20464;-68
2021/08/19 01:42:42;;;;;;;9.18;1.50;;;;;;;;;;5073454;28;20027;-63
2021/08/19 01:45:08;;;;;;;5.00;1.88;;;;;;;;;;5072864;28;20483;-66
2021/08/19 01:47:34;;;;;;;7.63;1.73;;;;;;;;;;5073071;28;20039;-67
2021/08/19 01:50:00;;;;;;;1.85;1.40;;;;;;;;;;5053145;28;20029;-67
2021/08/19 01:52:26;;;;;;;3.78;1.63;;;;;;;;;;5053256;28;20036;-65
2021/08/19 01:54:52;;;;;;;5.97;1.60;;;;;;;;;;5035005;28;20025;-67
2021/08/19 01:57:18;;;;;;;3.67;1.60;;;;;;;;;;5035399;28;20024;-67
2021/08/19 01:59:44;;;;;;;7.13;1.52;;;;;;;;;;5052735;28;20060;-66
2021/08/19 02:02:10;;;;;;;4.60;1.67;;;;;;;;;;5053016;28;20511;-67
2021/08/19 02:04:36;;;;;;;2.80;1.50;;;;;;;;;;5052739;28;20391;-67
2021/08/19 02:07:02;;;;;;;4.45;1.40;;;;;;;;;;5052298;28;20040;-67
2021/08/19 02:09:28;;;;;;;2.90;1.50;;;;;;;;;;5034872;28;20031;-66
2021/08/19 02:11:54;;;;;;;1.73;1.40;;;;;;;;;;5052846;28;20029;-67
2021/08/19 02:14:20;;;;;;;6.03;1.52;;;;;;;;;;5052256;28;20085;-66
2021/08/19 02:16:47;;;;;;;1.50;1.25;;;;;;;;;;5052535;28;20053;-66
2021/08/19 02:19:13;;;;;;;3.15;1.40;;;;;;;;;;5053030;28;20031;-66
2021/08/19 02:21:39;;;;;;;3.50;1.70;;;;;;;;;;5052614;28;20457;-66
2021/08/19 02:24:05;;;;;;;4.00;1.83;;;;;;;;;;5052374;28;20384;-66
2021/08/19 02:26:31;;;;;;;2.92;1.60;;;;;;;;;;5034872;28;20025;-66
2021/08/19 02:28:57;;;;;;;4.65;1.88;;;;;;;;;;5052255;28;20025;-65
2021/08/19 02:31:23;;;;;;;1.60;1.40;;;;;;;;;;5052407;28;20032;-66
2021/08/19 02:33:49;;;;;;;2.70;1.48;;;;;;;;;;5052878;28;20037;-67
2021/08/19 02:36:15;;;;;;;6.25;1.35;;;;;;;;;;5052534;28;20115;-67
2021/08/19 02:38:41;;;;;;;2.40;1.70;;;;;;;;;;5052401;28;20032;-67
2021/08/19 02:41:07;;;;;;;2.78;1.35;;;;;;;;;;5052553;28;20040;-67
2021/08/19 02:43:38;;;;;;;3.55;1.48;;;;;;;;;;5052213;28;20025;-66
2021/08/19 02:46:04;;;;;;;4.82;1.70;;;;;;;;;;5052543;28;20488;-67
2021/08/19 02:48:30;;;;;;;1.90;1.42;;;;;;;;;;5052385;28;20021;-65
2021/08/19 02:50:56;;;;;;;2.00;1.55;;;;;;;;;;5052212;28;20104;-66
2021/08/19 02:53:22;;;;;;;2.50;1.40;;;;;;;;;;5052423;28;20040;-66
2021/08/19 02:55:48;;;;;;;1.60;1.45;;;;;;;;;;5034131;28;20041;-67
2021/08/19 02:58:14;;;;;;;4.60;1.30;;;;;;;;;;5034669;28;20110;-66
2021/08/19 03:00:39;;;;;;;2.35;1.35;;;;;;;;;;5052195;28;20108;-66
2021/08/19 03:03:05;;;;;;;3.47;1.23;;;;;;;;;;5052274;28;20029;-66
2021/08/19 03:05:31;;;;;;;1.95;1.35;;;;;;;;;;5052359;28;20029;-66
2021/08/19 03:07:57;;;;;;;2.15;1.30;;;;;;;;;;5057069;28;20107;-66
2021/08/19 03:10:23;;;;;;;12.15;1.30;;;;;;;;;;5054330;28;20044;-66
2021/08/19 03:12:49;;;;;;;2.20;1.30;;;;;;;;;;5072271;28;20060;-67
2021/08/19 03:15:15;;;;;;;3.15;1.20;;;;;;;;;;5081225;28;20055;-66
2021/08/19 03:17:41;;;;;;;7.22;1.50;;;;;;;;;;5092710;28;20028;-67
2021/08/19 03:20:08;;;;;;;2.83;1.20;;;;;;;;;;5096099;28;20360;-67
2021/08/19 03:22:34;;;;;;;2.88;1.30;;;;;;;;;;5096207;28;20016;-66
2021/08/19 03:25:00;;;;;;;3.38;1.10;;;;;;;;;;5095826;28;20028;-65
2021/08/19 03:27:28;;;;;;;5.45;1.30;;;;;;;;;;5096046;28;20444;-67
2021/08/19 03:29:55;;;;;;;1.83;1.30;;;;;;;;;;5095838;28;20471;-67
2021/08/19 03:32:21;;;;;;;2.65;1.15;;;;;;;;;;5087186;28;20024;-66
2021/08/19 03:34:47;;;;;;;1.67;1.20;;;;;;;;;;5075879;28;20029;-67
2021/08/19 03:37:13;;;;;;;1.65;1.40;;;;;;;;;;5075573;28;20447;-68
2021/08/19 03:39:38;;;;;;;4.90;1.30;;;;;;;;;;5075455;28;20020;-66
2021/08/19 03:42:05;;;;;;;1.83;1.30;;;;;;;;;;5075428;28;20119;-68
2021/08/19 03:44:31;;;;;;;1.90;1.35;;;;;;;;;;5075428;28;20021;-67
2021/08/19 03:46:57;;;;;;;4.10;1.30;;;;;;;;;;5075301;28;20023;-66
2021/08/19 03:49:23;;;;;;;4.30;1.40;;;;;;;;;;5075227;28;20464;-67
2021/08/19 03:51:48;;;;;;;2.38;1.40;;;;;;;;;;5075388;28;20037;-66
2021/08/19 03:54:15;;;;;;;7.25;1.42;;;;;;;;;;5075126;28;20039;-66
2021/08/19 03:56:41;;;;;;;2.63;1.20;;;;;;;;;;5075019;28;20485;-66
2021/08/19 03:59:08;;;;;;;1.70;1.20;;;;;;;;;;5074927;28;20092;-66
2021/08/19 04:01:34;;;;;;;1.55;1.40;;;;;;;;;;5075003;28;20029;-66
2021/08/19 04:04:01;;;;;;;4.13;1.38;;;;;;;;;;5075139;28;20029;-66
2021/08/19 04:06:27;;;;;;;3.35;1.60;;;;;;;;;;5074118;28;20452;-66
2021/08/19 04:08:53;;;;;;;2.42;1.30;;;;;;;;;;5082025;28;20107;-66
2021/08/19 04:11:19;;;;;;;5.05;1.33;;;;;;;;;;5057094;28;20119;-64
2021/08/19 04:13:45;;;;;;;3.40;1.45;;;;;;;;;;5074786;28;20108;-66
2021/08/19 04:16:11;;;;;;;4.78;1.40;;;;;;;;;;5057530;28;20594;-66
2021/08/19 04:18:36;;;;;;;3.78;1.23;;;;;;;;;;5054784;28;20033;-67
2021/08/19 04:21:03;;;;;;;3.40;1.27;;;;;;;;;;5054665;28;20037;-67
2021/08/19 04:23:29;;;;;;;2.40;1.70;;;;;;;;;;5054871;28;20021;-66
2021/08/19 04:25:55;;;;;;;1.75;1.20;;;;;;;;;;5054442;28;20043;-66
2021/08/19 04:28:21;;;;;;;2.28;1.52;;;;;;;;;;5054495;28;20021;-65
2021/08/19 04:30:47;;;;;;;1.92;1.30;;;;;;;;;;5054227;28;20043;-66
2021/08/19 04:33:13;;;;;;;2.55;1.40;;;;;;;;;;5070346;28;20027;-65
2021/08/19 04:35:41;;;;;;;1.45;1.20;;;;;;;;;;5074345;28;20032;-66
2021/08/19 04:38:07;;;;;;;2.20;1.13;;;;;;;;;;5056342;28;20108;-66
2021/08/19 04:40:33;;;;;;;3.58;1.45;;;;;;;;;;5074336;28;20594;-67
2021/08/19 04:42:59;;;;;;;3.20;1.30;;;;;;;;;;5074274;28;20020;-65
2021/08/19 04:45:25;;;;;;;5.10;1.40;;;;;;;;;;5074215;28;20468;-66
2021/08/19 04:47:51;;;;;;;6.97;1.40;;;;;;;;;;5071657;28;20029;-67
2021/08/19 04:50:17;;;;;;;6.22;1.40;;;;;;;;;;5054698;28;20029;-66
2021/08/19 04:52:43;;;;;;;4.20;1.70;;;;;;;;;;5056086;28;20061;-67
2021/08/19 04:55:09;;;;;;;2.13;1.35;;;;;;;;;;5036560;28;20032;-65
2021/08/19 04:57:35;;;;;;;5.97;1.40;;;;;;;;;;5053805;28;20029;-66
2021/08/19 05:00:01;;;;;;;2.22;1.40;;;;;;;;;;5054099;28;20052;-66
2021/08/19 05:02:27;;;;;;;3.53;1.35;;;;;;;;;;5054657;28;20028;-65
2021/08/19 05:04:53;;;;;;;2.53;1.30;;;;;;;;;;5054413;28;20032;-66
2021/08/19 05:07:19;;;;;;;3.42;1.35;;;;;;;;;;5053836;28;20025;-66
2021/08/19 05:09:45;;;;;;;11.50;1.25;;;;;;;;;;5073272;28;20052;-66
2021/08/19 05:12:11;;;;;;;8.10;1.50;;;;;;;;;;5073721;28;20036;-66
2021/08/19 05:14:37;;;;;;;1.27;1.10;;;;;;;;;;5077571;28;20372;-65
2021/08/19 05:17:03;;;;;;;12.15;1.70;;;;;;;;;;5093822;28;20044;-66
2021/08/19 05:19:29;;;;;;;20.67;1.83;;;;;;;;;;5094008;28;20483;-67
2021/08/19 05:21:55;;;;;;;8.23;1.58;;;;;;;;;;5094037;28;20059;-67
2021/08/19 05:24:21;;;;;;;12.63;1.73;;;;;;;;;;5093726;28;20069;-66
2021/08/19 05:26:47;;;;;;;9.25;2.00;;;;;;;;;;5093494;28;20051;-64
2021/08/19 05:29:13;;;;;;;11.90;1.95;;;;;;;;;;5093567;28;20043;-65
2021/08/19 05:31:39;;;;;;;6.03;2.00;;;;;;;;;;5060495;28;20032;-67
2021/08/19 05:34:08;;;;;;;7.97;2.30;;;;;;;;;;5093459;28;20023;-66
2021/08/19 05:36:34;;;;;;;10.48;2.03;;;;;;;;;;5093489;28;20039;-65
2021/08/19 05:39:00;;;;;;;10.05;2.35;;;;;;;;;;5093406;28;20351;-67
2021/08/19 05:41:26;;;;;;;8.02;2.03;;;;;;;;;;5092750;28;20027;-67
2021/08/19 05:43:52;;;;;;;4.25;1.73;;;;;;;;;;5081974;28;20025;-67
2021/08/19 05:46:18;;;;;;;3.65;2.05;;;;;;;;;;5072879;28;20133;-66
2021/08/19 05:48:44;;;;;;;5.28;2.15;;;;;;;;;;5072761;28;20028;-65
2021/08/19 05:51:11;;;;;;;6.30;1.90;;;;;;;;;;5073046;28;20468;-65
2021/08/19 05:53:37;;;;;;;6.50;2.30;;;;;;;;;;5072909;28;20112;-67
2021/08/19 05:56:04;;;;;;;11.65;1.90;;;;;;;;;;5072559;28;20068;-67
2021/08/19 05:58:31;;;;;;;6.90;1.70;;;;;;;;;;5073416;28;20021;-66
2021/08/19 06:00:57;;;;;;;5.90;2.25;;;;;;;;;;5067540;28;20464;-65
2021/08/19 06:03:23;;;;;;;9.02;2.08;;;;;;;;;;5070558;28;20039;-65
2021/08/19 06:05:49;;;;;;;3.30;2.15;;;;;;;;;;5071720;28;20101;-66
2021/08/19 06:08:15;;;;;;;4.07;2.10;;;;;;;;;;5071796;28;20030;-67
2021/08/19 06:10:41;;;;;;;5.30;2.15;;;;;;;;;;5071482;28;20052;-66
2021/08/19 06:13:08;;;;;;;14.05;2.42;;;;;;;;;;5054034;28;20024;-66
2021/08/19 06:15:34;;;;;;;6.22;2.30;;;;;;;;;;5071560;28;20040;-65
2021/08/19 06:18:00;;;;;;;4.53;2.30;;;;;;;;;;5071875;28;20460;-67
2021/08/19 06:20:26;;;;;;;7.18;2.65;;;;;;;;;;5072084;28;20066;-65
2021/08/19 06:22:54;;;;;;;8.05;2.80;;;;;;;;;;5068990;28;20013;-65
2021/08/19 06:25:20;;;;;;;6.13;2.80;;;;;;;;;;5071826;28;20020;-65
2021/08/19 06:27:47;;;;;;;6.93;3.22;;;;;;;;;;5071278;28;20363;-65
2021/08/19 06:30:13;;;;;;;10.38;3.35;;;;;;;;;;5071486;28;20096;-65
2021/08/19 06:32:39;;;;;;;6.70;3.60;;;;;;;;;;5055156;28;20410;-65
2021/08/19 06:35:06;;;;;;;5.50;3.58;;;;;;;;;;5053414;28;20591;-65
2021/08/19 06:37:32;;;;;;;14.85;4.30;;;;;;;;;;5071450;28;20052;-67
2021/08/19 06:39:58;;;;;;;9.50;3.75;;;;;;;;;;5073404;28;20072;-65
2021/08/19 06:42:24;;;;;;;4.88;3.67;;;;;;;;;;5054290;28;20479;-67
2021/08/19 06:44:50;;;;;;;14.00;3.85;;;;;;;;;;5072581;28;20474;-65
2021/08/19 06:47:16;;;;;;;9.57;4.10;;;;;;;;;;5072163;28;20067;-66
2021/08/19 06:49:44;;;;;;;8.00;4.20;;;;;;;;;;5071712;28;20111;-65
2021/08/19 06:52:10;;;;;;;5.88;3.65;;;;;;;;;;5072914;28;20033;-65
2021/08/19 06:54:36;;;;;;;8.02;4.10;;;;;;;;;;5075954;28;20013;-63
2021/08/19 06:57:02;;;;;;;7.45;4.13;;;;;;;;;;5082773;28;20075;-64
2021/08/19 06:59:28;;;;;;;9.65;3.88;;;;;;;;;;5090992;28;20032;-65
2021/08/19 07:01:55;;;;;;;6.63;3.70;;;;;;;;;;5076008;28;20035;-65
2021/08/19 07:04:21;;;;;;;14.18;4.13;;;;;;;;;;5076105;28;20028;-66
2021/08/19 07:06:47;;;;;;;13.15;3.90;;;;;;;;;;5057773;28;20024;-63
2021/08/19 07:09:14;;;;;;;6.75;3.67;;;;;;;;;;5091434;28;20383;-65
2021/08/19 07:11:40;;;;;;;8.25;3.90;;;;;;;;;;5095983;28;20479;-64
2021/08/19 07:14:06;;;;;;;9.68;4.07;;;;;;;;;;5096250;28;20069;-64
2021/08/19 07:16:33;;;;;;;8.85;3.70;;;;;;;;;;5095739;28;20511;-65
2021/08/19 07:18:59;;;;;;;6.22;3.58;;;;;;;;;;5095710;28;20200;-63
2021/08/19 07:21:25;;;;;;;10.02;3.97;;;;;;;;;;5078029;28;20056;-63
2021/08/19 07:23:51;;;;;;;6.80;3.80;;;;;;;;;;5075575;28;20052;-65
2021/08/19 07:26:21;;;;;;;7.57;3.65;;;;;;;;;;5070146;28;20021;-63
2021/08/19 07:28:47;;;;;;;8.20;3.50;;;;;;;;;;5080829;28;20028;-64
2021/08/19 07:31:13;;;;;;;9.73;3.85;;;;;;;;;;5085538;28;20035;-65
2021/08/19 07:33:39;;;;;;;10.73;3.63;;;;;;;;;;5092231;28;20031;-65
2021/08/19 07:36:05;;;;;;;6.68;3.38;;;;;;;;;;5080596;28;20035;-66
2021/08/19 07:38:32;;;;;;;8.18;3.42;;;;;;;;;;5075126;28;20021;-64
2021/08/19 07:40:58;;;;;;;8.80;3.38;;;;;;;;;;5084947;28;20055;-65
2021/08/19 07:43:23;;;;;;;6.88;3.60;;;;;;;;;;5065138;28;20367;-65
2021/08/19 07:45:50;;;;;;;7.43;3.47;;;;;;;;;;5082663;28;20025;-65
2021/08/19 07:48:16;;;;;;;5.68;3.70;;;;;;;;;;5081866;28;20058;-66
2021/08/19 07:50:42;;;;;;;12.52;3.60;;;;;;;;;;5083121;28;20031;-66
2021/08/19 07:53:09;;;;;;;10.88;3.70;;;;;;;;;;5083707;28;20043;-65
2021/08/19 07:55:35;;;;;;;8.57;3.83;;;;;;;;;;5076255;28;20028;-65
2021/08/19 07:58:01;;;;;;;8.43;3.55;;;;;;;;;;5073916;28;20102;-66
2021/08/19 08:00:28;;;;;;;8.43;3.70;;;;;;;;;;5071528;28;20020;-64
2021/08/19 08:02:54;;;;;;;7.68;3.90;;;;;;;;;;5074780;28;20047;-66
2021/08/19 08:05:21;;;;;;;9.23;3.38;;;;;;;;;;5074555;28;20507;-65
2021/08/19 08:07:47;;;;;;;9.98;3.55;;;;;;;;;;5077949;28;20043;-67
2021/08/19 08:10:13;;;;;;;10.73;3.63;;;;;;;;;;5094994;28;20475;-67
2021/08/19 08:12:39;;;;;;;7.60;3.53;;;;;;;;;;5082088;28;20029;-66
2021/08/19 08:15:06;;;;;;;8.95;3.72;;;;;;;;;;5074586;28;20060;-67
2021/08/19 08:17:35;;;;;;;14.18;3.92;;;;;;;;;;5074805;28;20020;-66
2021/08/19 08:20:02;;;;;;;12.07;3.63;;;;;;;;;;5074660;28;20021;-66
2021/08/19 08:22:28;;;;;;;8.52;4.22;;;;;;;;;;5074798;28;20116;-67
2021/08/19 08:24:54;;;;;;;10.15;3.58;;;;;;;;;;5074555;28;20104;-67
2021/08/19 08:27:20;;;;;;;11.13;3.67;;;;;;;;;;5074404;28;20021;-67
2021/08/19 08:29:46;;;;;;;9.85;4.15;;;;;;;;;;5074723;28;20384;-66
2021/08/19 08:32:12;;;;;;;8.77;4.03;;;;;;;;;;5082188;28;20455;-66
2021/08/19 08:34:39;;;;;;;12.27;4.28;;;;;;;;;;5094567;28;20031;-66
2021/08/19 08:37:07;;;;;;;6.45;3.53;;;;;;;;;;5094589;28;20128;-66
2021/08/19 08:39:36;;;;;;;10.43;3.40;;;;;;;;;;5094724;28;20024;-66
2021/08/19 08:42:05;;;;;;;9.52;3.70;;;;;;;;;;5094737;28;20109;-65
2021/08/19 08:44:31;;;;;;;10.98;3.42;;;;;;;;;;5094684;28;20024;-66
2021/08/19 08:46:57;;;;;;;9.60;3.28;;;;;;;;;;5094320;28;20046;-66
2021/08/19 08:49:24;;;;;;;11.90;3.60;;;;;;;;;;5078937;28;20030;-66
2021/08/19 08:51:55;;;;;;;6.03;3.30;;;;;;;;;;5074279;28;20111;-66
2021/08/19 08:54:21;;;;;;;8.27;3.78;;;;;;;;;;5074104;28;20059;-67
2021/08/19 08:56:46;;;;;;;10.10;3.92;;;;;;;;;;5073761;28;20068;-67
2021/08/19 08:59:12;;;;;;;11.15;3.90;;;;;;;;;;5055857;28;20103;-66
2021/08/19 09:01:38;;;;;;;6.63;3.47;;;;;;;;;;5036142;28;20524;-66
2021/08/19 09:04:05;;;;;;;6.80;3.85;;;;;;;;;;5054367;28;20075;-66
2021/08/19 09:06:41;;;;;;;11.93;3.83;;;;;;;;;;5053705;28;20025;-67
2021/08/19 09:09:16;;;;;;;11.82;3.80;;;;;;;;;;5082486;28;20028;-67
2021/08/19 09:11:46;;;;;;;7.18;3.88;;;;;;;;;;5093936;28;20032;-66
2021/08/19 09:14:20;;;;;;;9.10;3.97;;;;;;;;;;5093825;28;20111;-66
2021/08/19 09:16:47;;;;;;;9.38;3.72;;;;;;;;;;5074553;28;20050;-66
2021/08/19 09:19:14;;;;;;;6.00;3.75;;;;;;;;;;5073032;28;20029;-66
2021/08/19 09:21:47;;;;;;;6.53;3.90;;;;;;;;;;5072585;28;20020;-68
2021/08/19 09:24:14;;;;;;;10.68;4.40;;;;;;;;;;5055091;28;20437;-66
2021/08/19 09:26:40;;;;;;;8.02;4.15;;;;;;;;;;5073298;28;20020;-66
2021/08/19 09:29:22;;;;;;;8.32;3.97;;;;;;;;;;5073102;28;20361;-67
2021/08/19 09:31:48;;;;;;;7.93;3.87;;;;;;;;;;5059757;28;20129;-67
2021/08/19 09:34:15;;;;;;;7.50;4.28;;;;;;;;;;5093418;28;20028;-67
2021/08/19 09:36:41;;;;;;;8.88;3.92;;;;;;;;;;5093161;28;20432;-67
2021/08/19 09:39:07;;;;;;;25.80;4.20;;;;;;;;;;5093135;28;20100;-66
2021/08/19 09:41:49;;;;;;;13.15;4.40;;;;;;;;;;5093199;28;20452;-67
2021/08/19 09:44:26;;;;;;;13.57;4.87;;;;;;;;;;5093411;28;20016;-66
2021/08/19 09:46:52;;;;;;;16.27;5.10;;;;;;;;;;5092971;28;20460;-66
2021/08/19 09:49:27;;;;;;;15.27;5.18;;;;;;;;;;5068998;28;20520;-66
2021/08/19 09:52:04;;;;;;;38.30;5.10;;;;;;;;;;5072414;28;20097;-66
2021/08/19 09:54:31;;;;;;;25.48;5.15;;;;;;;;;;5072693;28;20031;-67
2021/08/19 09:56:57;;;;;;;21.40;5.45;;;;;;;;;;5072464;28;20044;-67
2021/08/19 09:59:25;;;;;;;24.02;5.05;;;;;;;;;;5072182;28;20032;-66
2021/08/19 10:01:55;;;;;;;19.25;5.10;;;;;;;;;;5072170;28;20060;-67
2021/08/19 10:04:23;;;;;;;8.60;4.65;;;;;;;;;;5072518;28;20016;-67
2021/08/19 10:06:50;;;;;;;15.20;4.82;;;;;;;;;;5071844;28;20054;-67
2021/08/19 10:09:16;;;;;;;11.63;5.20;;;;;;;;;;5072050;28;20020;-64
2021/08/19 10:11:43;;;;;;;13.48;5.30;;;;;;;;;;5072494;28;20059;-70
2021/08/19 10:14:12;;;;;;;13.80;5.03;;;;;;;;;;5072813;28;20032;-66
2021/08/19 10:16:38;;;;;;;11.15;4.93;;;;;;;;;;5054028;28;20049;-65
2021/08/19 10:19:30;;;;;;;11.63;4.93;;;;;;;;;;5052626;28;20483;-65
2021/08/19 10:22:09;;;;;;;16.60;5.30;;;;;;;;;;5049152;28;20456;-66
2021/08/19 10:24:37;;;;;;;13.20;4.47;;;;;;;;;;5034859;28;20037;-66
2021/08/19 10:27:22;;;;;;;8.50;4.45;;;;;;;;;;5052307;28;20017;-68
2021/08/19 10:29:49;;;;;;;11.05;4.70;;;;;;;;;;5052460;28;20350;-67
2021/08/19 10:32:22;;;;;;;7.90;3.95;;;;;;;;;;5043021;28;20021;-68
2021/08/19 10:34:54;;;;;;;8.90;3.80;;;;;;;;;;5072723;28;20442;-68
2021/08/19 10:37:20;;;;;;;9.48;3.83;;;;;;;;;;5072562;28;20396;-68
2021/08/19 10:39:46;;;;;;;8.25;3.92;;;;;;;;;;5072739;28;20024;-69
2021/08/19 10:42:27;;;;;;;12.00;4.13;;;;;;;;;;5072572;28;20033;-68
2021/08/19 10:44:53;;;;;;;11.82;4.05;;;;;;;;;;5072433;28;20115;-69
2021/08/19 10:47:36;;;;;;;9.45;3.78;;;;;;;;;;5072464;28;20170;-68
2021/08/19 10:50:21;;;;;;;11.85;3.38;;;;;;;;;;5044855;28;20053;-69
2021/08/19 10:52:47;;;;;;;9.88;3.75;;;;;;;;;;5034472;28;20044;-68
2021/08/19 10:55:14;;;;;;;4.05;3.20;;;;;;;;;;5052427;28;20110;-69
2021/08/19 10:57:47;;;;;;;7.55;3.65;;;;;;;;;;5052377;28;20380;-69
2021/08/19 11:00:13;;;;;;;5.35;3.45;;;;;;;;;;5052190;28;20022;-69
2021/08/19 11:02:42;;;;;;;7.70;3.53;;;;;;;;;;5052470;28;20037;-69
2021/08/19 11:05:09;;;;;;;9.13;3.60;;;;;;;;;;5052279;28;20032;-70
2021/08/19 11:07:46;;;;;;;17.73;3.38;;;;;;;;;;5053894;28;20032;-73
2021/08/19 11:10:12;;;;;;;11.30;3.50;;;;;;;;;;5072232;28;20025;-67
2021/08/19 11:12:38;;;;;;;6.13;3.40;;;;;;;;;;5072241;28;20021;-68
2021/08/19 11:15:04;;;;;;;19.33;3.97;;;;;;;;;;5077650;28;20055;-69
2021/08/19 11:17:30;;;;;;;7.35;3.50;;;;;;;;;;5092160;28;20483;-69
2021/08/19 11:19:56;;;;;;;14.65;3.70;;;;;;;;;;5092591;28;20024;-69
2021/08/19 11:22:22;;;;;;;13.95;4.00;;;;;;;;;;5074253;28;20031;-68
2021/08/19 11:24:48;;;;;;;11.40;3.42;;;;;;;;;;5092213;28;20028;-69
2021/08/19 11:27:14;;;;;;;7.75;3.83;;;;;;;;;;5092518;28;20549;-70
2021/08/19 11:29:42;;;;;;;6.82;3.30;;;;;;;;;;5092201;28;20058;-72
2021/08/19 11:32:08;;;;;;;7.97;3.47;;;;;;;;;;5092626;28;20479;-72
2021/08/19 11:34:35;;;;;;;4.78;3.28;;;;;;;;;;5092681;28;20056;-74
2021/08/19 11:37:01;;;;;;;8.60;3.45;;;;;;;;;;5092615;28;20040;-71
2021/08/19 11:39:28;;;;;;;5.60;3.40;;;;;;;;;;5093635;28;20013;-68
2021/08/19 11:41:55;;;;;;;8.88;3.53;;;;;;;;;;5095927;28;20028;-68
2021/08/19 11:44:21;;;;;;;6.45;3.13;;;;;;;;;;5095591;28;20074;-68
2021/08/19 11:46:47;;;;;;;4.90;3.28;;;;;;;;;;5095677;28;20031;-69
2021/08/19 11:49:14;;;;;;;6.80;3.20;;;;;;;;;;5081749;28;20096;-76
2021/08/19 11:51:41;;;;;;;4.78;3.40;;;;;;;;;;5075694;28;20021;-67
2021/08/19 11:54:09;;;;;;;5.10;3.53;;;;;;;;;;5075372;28;20056;-69
2021/08/19 11:56:36;;;;;;;5.72;3.10;;;;;;;;;;5075191;28;20506;-68
2021/08/19 11:59:02;;;;;;;4.10;2.70;;;;;;;;;;5075060;28;20033;-68
2021/08/19 12:01:28;;;;;;;5.28;3.20;;;;;;;;;;5056821;28;20108;-68
2021/08/19 12:03:54;;;;;;;4.97;3.00;;;;;;;;;;5055313;28;20025;-67
2021/08/19 12:06:21;;;;;;;7.00;3.50;;;;;;;;;;5054936;28;20103;-69
2021/08/19 12:08:47;;;;;;;3.70;2.83;;;;;;;;;;5072000;28;20023;-68
2021/08/19 12:11:15;;;;;;;4.22;3.22;;;;;;;;;;5075054;28;20468;-68
2021/08/19 12:13:41;;;;;;;4.50;2.83;;;;;;;;;;5074899;28;20021;-68
2021/08/19 12:16:08;;;;;;;4.88;3.10;;;;;;;;;;5060401;28;20159;-68
2021/08/19 12:18:34;;;;;;;4.57;2.88;;;;;;;;;;5054831;28;20024;-69
2021/08/19 12:21:14;;;;;;;5.50;3.33;;;;;;;;;;5054602;28;20033;-71
2021/08/19 12:23:40;;;;;;;4.82;3.50;;;;;;;;;;5037098;28;20028;-67
2021/08/19 12:26:10;;;;;;;8.73;3.13;;;;;;;;;;5054893;28;20059;-69
2021/08/19 12:28:36;;;;;;;5.15;2.83;;;;;;;;;;5054729;28;20036;-69
2021/08/19 12:31:04;;;;;;;5.80;3.08;;;;;;;;;;5054728;28;20064;-69
2021/08/19 12:33:35;;;;;;;5.70;3.33;;;;;;;;;;5073093;28;20111;-70
2021/08/19 12:36:20;;;;;;;3.20;2.90;;;;;;;;;;5056411;28;20094;-70
2021/08/19 12:38:49;;;;;;;4.20;3.22;;;;;;;;;;5056440;28;20056;-69
2021/08/19 12:41:15;;;;;;;4.15;3.15;;;;;;;;;;5074565;28;20024;-69
2021/08/19 12:43:41;;;;;;;4.40;3.10;;;;;;;;;;5074778;28;20036;-68
2021/08/19 12:46:08;;;;;;;3.30;3.00;;;;;;;;;;5074480;28;20063;-68
2021/08/19 12:48:35;;;;;;;5.45;2.83;;;;;;;;;;5065796;28;20025;-70
2021/08/19 12:51:20;;;;;;;3.75;3.22;;;;;;;;;;5034423;28;20032;-68
2021/08/19 12:54:05;;;;;;;3.78;2.92;;;;;;;;;;5034650;28;20025;-70
2021/08/19 12:56:32;;;;;;;7.97;3.13;;;;;;;;;;5033981;28;20038;-68
2021/08/19 12:58:58;;;;;;;5.95;3.80;;;;;;;;;;5034098;28;20052;-69
2021/08/19 13:01:24;;;;;;;5.63;3.22;;;;;;;;;;5034284;28;20028;-70
2021/08/19 13:03:50;;;;;;;6.80;3.78;;;;;;;;;;5034235;28;20059;-72
2021/08/19 13:06:16;;;;;;;6.47;3.95;;;;;;;;;;5033970;28;20037;-71
2021/08/19 13:08:42;;;;;;;8.38;3.70;;;;;;;;;;5055922;28;20025;-72
2021/08/19 13:11:08;;;;;;;7.18;3.88;;;;;;;;;;5073583;28;20041;-69
2021/08/19 13:13:34;;;;;;;4.97;3.60;;;;;;;;;;5036199;28;20052;-69
2021/08/19 13:16:00;;;;;;;7.25;3.97;;;;;;;;;;5066557;28;20044;-69
2021/08/19 13:18:26;;;;;;;4.50;3.50;;;;;;;;;;5073699;28;20495;-70
2021/08/19 13:20:52;;;;;;;5.78;3.70;;;;;;;;;;5073527;28;20036;-69
2021/08/19 13:23:18;;;;;;;10.32;3.30;;;;;;;;;;5073665;28;20472;-70
2021/08/19 13:25:44;;;;;;;5.28;3.47;;;;;;;;;;5073864;28;20024;-69
2021/08/19 13:28:11;;;;;;;7.40;3.50;;;;;;;;;;5073368;28;20107;-70
2021/08/19 13:30:37;;;;;;;3.55;3.22;;;;;;;;;;5073436;28;20028;-70
2021/08/19 13:33:03;;;;;;;5.85;3.45;;;;;;;;;;5073737;28;20032;-69
2021/08/19 13:35:30;;;;;;;4.80;2.85;;;;;;;;;;5073267;28;20119;-70
2021/08/19 13:37:56;;;;;;;4.80;3.17;;;;;;;;;;5039028;28;20498;-70
2021/08/19 13:40:23;;;;;;;3.95;2.55;;;;;;;;;;5073390;28;20024;-69
2021/08/19 13:42:49;;;;;;;5.85;2.88;;;;;;;;;;5073092;28;20082;-69
2021/08/19 13:45:15;;;;;;;5.07;2.85;;;;;;;;;;5073500;28;20032;-69
2021/08/19 13:47:41;;;;;;;4.07;2.30;;;;;;;;;;5073277;28;20020;-70
2021/08/19 13:50:07;;;;;;;5.07;2.72;;;;;;;;;;5073448;28;20111;-70
2021/08/19 13:52:33;;;;;;;5.47;2.42;;;;;;;;;;5073202;28;20437;-69
2021/08/19 13:54:59;;;;;;;3.35;2.70;;;;;;;;;;5073390;28;20028;-70
2021/08/19 13:57:25;;;;;;;4.32;2.97;;;;;;;;;;5072888;28;20036;-70
2021/08/19 13:59:51;;;;;;;4.78;2.60;;;;;;;;;;5073119;28;20055;-70
2021/08/19 14:02:17;;;;;;;4.32;2.95;;;;;;;;;;5072544;28;20040;-69
2021/08/19 14:04:43;;;;;;;7.35;3.40;;;;;;;;;;5054921;28;20021;-70
2021/08/19 14:07:09;;;;;;;5.65;2.72;;;;;;;;;;5053974;28;20059;-70
2021/08/19 14:09:35;;;;;;;6.20;3.25;;;;;;;;;;5052786;28;20373;-70
2021/08/19 14:12:01;;;;;;;9.15;3.20;;;;;;;;;;5052569;28;20099;-70
2021/08/19 14:14:27;;;;;;;4.18;3.33;;;;;;;;;;5034508;28;20021;-70
2021/08/19 14:16:53;;;;;;;5.95;3.38;;;;;;;;;;5052224;28;20048;-70
2021/08/19 14:19:19;;;;;;;5.80;3.25;;;;;;;;;;5052579;28;20037;-70
2021/08/19 14:21:47;;;;;;;7.63;3.35;;;;;;;;;;5052235;28;20094;-70
2021/08/19 14:24:13;;;;;;;11.00;4.10;;;;;;;;;;5052133;28;20028;-68
2021/08/19 14:26:40;;;;;;;7.30;3.65;;;;;;;;;;5034600;28;20033;-67
2021/08/19 14:29:06;;;;;;;6.72;3.50;;;;;;;;;;5052039;28;20025;-68
2021/08/19 14:31:32;;;;;;;17.40;4.78;;;;;;;;;;5056488;28;20494;-66
2021/08/19 14:33:58;;;;;;;21.63;3.78;;;;;;;;;;5093284;28;20031;-70
2021/08/19 14:36:24;;;;;;;4.88;3.85;;;;;;;;;;5092468;28;20024;-74
2021/08/19 14:38:50;;;;;;;11.30;4.13;;;;;;;;;;5092862;28;20387;-72
2021/08/19 14:41:16;;;;;;;11.60;4.03;;;;;;;;;;5092503;28;20468;-73